Uranus L — 9LU2406 — position and weather

sailwx.info

Track history (hours):
 
Tides and Currents Weather Stations Pressure Air Temp Water Temp Dewpoint Dewpoint Depression Visibility Wind Speed Wind Dir Waves Ship Positions

Uranus L

Last reported at 2017-Oct-16 16:51 UTC. Time now 2017-Oct-22 17:47 UTC.
Position N 41°56' E 019°02'.

Length 84 m; draft 4.8 m.

Type: Cargo ship. MMSI: 667001603.

Date/timePositionNaut miles runAvg speedWind from/ knotsBaromVisibWave heightAir tempDewpointWater temp
2017-Oct-16 16:51N 41°56' E 019°02'6 8.5
2017-Oct-16 16:11N 41°51' E 019°02'2 8.7
2017-Oct-16 16:00N 41°49' E 019°02'63 8.2
2017-Oct-16 08:18N 40°46' E 018°60'2 8.3
2017-Oct-16 08:00N 40°43' E 018°60'5 8.2
2017-Oct-16 07:26N 40°39' E 019°01'3 8.1
2017-Oct-16 07:00N 40°35' E 019°02'4 7.9
2017-Oct-16 06:30N 40°32' E 019°03'4 7.8
2017-Oct-16 06:00N 40°28' E 019°03'4 7.7
2017-Oct-16 05:30N 40°24' E 019°04'4 7.5
2017-Oct-16 05:00N 40°20' E 019°05'4 7.4
2017-Oct-16 04:31N 40°17' E 019°06'4 7.3
2017-Oct-16 04:00N 40°13' E 019°07'4 7.4
2017-Oct-16 03:30N 40°09' E 019°09'4 7.7
2017-Oct-16 03:00N 40°06' E 019°10'4 8.0
2017-Oct-16 02:30N 40°02' E 019°11'4 7.9
2017-Oct-16 02:01N 39°58' E 019°12'4 7.9
2017-Oct-16 01:30N 39°54' E 019°13'4 8.0
2017-Oct-16 01:00N 39°50' E 019°14'4 7.8
2017-Oct-16 00:31N 39°47' E 019°16'4 7.8
2017-Oct-16 00:01N 39°43' E 019°18'4 7.9
2017-Oct-15 23:30N 39°40' E 019°21'4 8.0
2017-Oct-15 23:00N 39°36' E 019°23'5 8.2
2017-Oct-15 22:25N 39°32' E 019°26'36 8.0
2017-Oct-15 17:55N 38°59' E 019°45'4 7.9
2017-Oct-15 17:22N 38°55' E 019°47'  
2017-Oct-08 00:37N 31°52' E 034°27'1 8.4
2017-Oct-08 00:30N 31°52' E 034°26'4 8.4
2017-Oct-08 00:00N 31°54' E 034°21'7 8.4
2017-Oct-07 23:11N 31°57' E 034°14'3 8.5
2017-Oct-07 22:49N 31°58' E 034°10'3 8.2
2017-Oct-07 22:30N 31°59' E 034°08'4 8.1
2017-Oct-07 22:01N 32°01' E 034°03'4 7.8
2017-Oct-07 21:30N 32°02' E 033°59'4 7.9
2017-Oct-07 21:00N 32°04' E 033°55'4 8.1
2017-Oct-07 20:31N 32°06' E 033°50'4 8.0
2017-Oct-07 20:00N 32°07' E 033°46'18 8.0
2017-Oct-07 17:47N 32°15' E 033°27'25 8.2
2017-Oct-07 14:43N 32°24' E 032°59'  
Track history (hours):
 
Tides and Currents Weather Stations Pressure Air Temp Water Temp Dewpoint Dewpoint Depression Visibility Wind Speed Wind Dir Waves Ship Positions

Uranus L

Last reported at 2017-Oct-16 16:51 UTC. Time now 2017-Oct-22 17:47 UTC.
Position N 41°56' E 019°02'.

Length 84 m; draft 4.8 m.

Type: Cargo ship. MMSI: 667001603.

Date/timePositionNaut miles runAvg speedWind from/ knotsBaromVisibWave heightAir tempDewpointWater temp
2017-Oct-16 16:51N 41°56' E 019°02'6 8.5
2017-Oct-16 16:11N 41°51' E 019°02'2 8.7
2017-Oct-16 16:00N 41°49' E 019°02'63 8.2
2017-Oct-16 08:18N 40°46' E 018°60'2 8.3
2017-Oct-16 08:00N 40°43' E 018°60'5 8.2
2017-Oct-16 07:26N 40°39' E 019°01'3 8.1
2017-Oct-16 07:00N 40°35' E 019°02'4 7.9
2017-Oct-16 06:30N 40°32' E 019°03'4 7.8
2017-Oct-16 06:00N 40°28' E 019°03'4 7.7
2017-Oct-16 05:30N 40°24' E 019°04'4 7.5
2017-Oct-16 05:00N 40°20' E 019°05'4 7.4
2017-Oct-16 04:31N 40°17' E 019°06'4 7.3
2017-Oct-16 04:00N 40°13' E 019°07'4 7.4
2017-Oct-16 03:30N 40°09' E 019°09'4 7.7
2017-Oct-16 03:00N 40°06' E 019°10'4 8.0
2017-Oct-16 02:30N 40°02' E 019°11'4 7.9
2017-Oct-16 02:01N 39°58' E 019°12'4 7.9
2017-Oct-16 01:30N 39°54' E 019°13'4 8.0
2017-Oct-16 01:00N 39°50' E 019°14'4 7.8
2017-Oct-16 00:31N 39°47' E 019°16'4 7.8
2017-Oct-16 00:01N 39°43' E 019°18'4 7.9
2017-Oct-15 23:30N 39°40' E 019°21'4 8.0
2017-Oct-15 23:00N 39°36' E 019°23'5 8.2
2017-Oct-15 22:25N 39°32' E 019°26'36 8.0
2017-Oct-15 17:55N 38°59' E 019°45'4 7.9
2017-Oct-15 17:22N 38°55' E 019°47'  
2017-Oct-08 00:37N 31°52' E 034°27'1 8.4
2017-Oct-08 00:30N 31°52' E 034°26'4 8.4
2017-Oct-08 00:00N 31°54' E 034°21'7 8.4
2017-Oct-07 23:11N 31°57' E 034°14'3 8.5
2017-Oct-07 22:49N 31°58' E 034°10'3 8.2
2017-Oct-07 22:30N 31°59' E 034°08'4 8.1
2017-Oct-07 22:01N 32°01' E 034°03'4 7.8
2017-Oct-07 21:30N 32°02' E 033°59'4 7.9
2017-Oct-07 21:00N 32°04' E 033°55'4 8.1
2017-Oct-07 20:31N 32°06' E 033°50'4 8.0
2017-Oct-07 20:00N 32°07' E 033°46'18 8.0
2017-Oct-07 17:47N 32°15' E 033°27'25 8.2
2017-Oct-07 14:43N 32°24' E 032°59'  

Dump ship's entire track history